Time;durP1;ratioP1;P1;durP2;ratioP2;P2;SDS_P1;SDS_P2;PMS_P1;PMS_P2;Temp;Humidity;BMP_temperature;BMP_pressure;BME280_temperature;BME280_humidity;BME280_pressure;Samples;Min_cycle;Max_cycle;Signal;HPM_P1;HPM_P2
2021/08/28 00:01:08;;;;;;;8.45;4.75;;;;;;;18.13;66.97;100220.84;1700041;83;21036;-66
2021/08/28 00:03:37;;;;;;;6.85;4.40;;;;;;;18.08;67.13;100221.37;1704027;83;21020;-69
2021/08/28 00:06:03;;;;;;;9.50;4.33;;;;;;;18.05;67.33;100223.05;1701918;83;21087;-65
2021/08/28 00:08:29;;;;;;;9.15;5.03;;;;;;;18.07;67.32;100224.20;1704137;81;21109;-70
2021/08/28 00:10:56;;;;;;;7.42;4.87;;;;;;;18.13;67.21;100227.50;1704841;83;21169;-66
2021/08/28 00:13:22;;;;;;;9.05;5.75;;;;;;;18.14;67.22;100224.67;1696821;83;21054;-67
2021/08/28 00:15:50;;;;;;;11.65;5.65;;;;;;;18.15;67.22;100226.81;1704161;82;21062;-67
2021/08/28 00:18:17;;;;;;;12.13;6.20;;;;;;;18.10;67.37;100226.52;1679403;83;21070;-66
2021/08/28 00:20:44;;;;;;;8.15;6.00;;;;;;;18.04;67.58;100224.07;1704713;83;21401;-69
2021/08/28 00:23:10;;;;;;;8.88;6.33;;;;;;;18.01;67.73;100229.23;1698884;81;21141;-67
2021/08/28 00:25:37;;;;;;;9.43;5.72;;;;;;;17.99;67.67;100230.42;1702322;83;21062;-67
2021/08/28 00:28:04;;;;;;;10.48;6.00;;;;;;;18.00;67.65;100234.72;1704888;83;21561;-66
2021/08/28 00:30:30;;;;;;;7.40;4.87;;;;;;;18.06;68.12;100234.03;1707208;82;21122;-67
2021/08/28 00:32:57;;;;;;;8.00;4.70;;;;;;;18.08;68.33;100227.20;1699109;83;21047;-69
2021/08/28 00:35:23;;;;;;;8.20;5.45;;;;;;;18.06;68.07;100227.89;1679849;83;22146;-66
2021/08/28 00:37:50;;;;;;;10.20;6.08;;;;;;;17.98;68.05;100224.25;1701150;83;21070;-68
2021/08/28 00:40:16;;;;;;;12.98;6.00;;;;;;;17.90;68.22;100217.63;1700348;83;21079;-65
2021/08/28 00:42:51;;;;;;;9.93;6.12;;;;;;;17.87;68.48;100216.68;1706450;83;21691;-66
2021/08/28 00:45:22;;;;;;;9.08;6.55;;;;;;;17.84;68.62;100214.33;1685772;83;21570;-66
2021/08/28 00:48:05;;;;;;;10.13;6.30;;;;;;;17.86;68.48;100216.31;1707939;83;21125;-69
2021/08/28 00:50:33;;;;;;;10.13;5.90;;;;;;;17.91;68.37;100211.32;1695300;83;21074;-67
2021/08/28 00:53:02;;;;;;;9.45;6.67;;;;;;;17.96;68.16;100214.28;1692144;83;21059;-67
2021/08/28 00:55:32;;;;;;;9.85;6.92;;;;;;;18.00;68.03;100212.09;1688166;83;21114;-66
2021/08/28 00:58:00;;;;;;;10.10;6.78;;;;;;;18.01;67.86;100201.78;1675916;83;21102;-67
2021/08/28 01:00:27;;;;;;;10.98;6.12;;;;;;;18.02;67.66;100198.09;1691035;83;21110;-66
2021/08/28 01:02:53;;;;;;;14.98;6.87;;;;;;;17.99;67.58;100201.96;1694110;83;21082;-66
2021/08/28 01:05:29;;;;;;;7.33;5.45;;;;;;;17.97;67.76;100206.64;1697938;83;21146;-68
2021/08/28 01:08:11;;;;;;;9.40;6.00;;;;;;;17.96;68.00;100201.48;1694573;83;21564;-66
2021/08/28 01:10:53;;;;;;;8.25;5.95;;;;;;;18.01;68.11;100202.61;1662333;83;21114;-67
2021/08/28 01:13:25;;;;;;;8.65;5.92;;;;;;;18.06;68.12;100202.09;1674409;83;21148;-66
2021/08/28 01:15:53;;;;;;;10.48;5.87;;;;;;;18.11;68.14;100206.37;1692581;83;21087;-67
2021/08/28 01:18:24;;;;;;;10.05;6.80;;;;;;;18.10;68.21;100204.70;1680312;83;21314;-67
2021/08/28 01:21:12;;;;;;;8.35;5.95;;;;;;;18.09;68.26;100197.74;1675441;83;21106;-67
2021/08/28 01:23:50;;;;;;;8.58;5.97;;;;;;;18.08;68.40;100196.59;1583173;87;21098;-68
2021/08/28 01:26:21;;;;;;;7.72;5.42;;;;;;;18.04;68.63;100198.78;1688920;83;21172;-66
2021/08/28 01:29:00;;;;;;;8.08;5.00;;;;;;;18.06;68.59;100198.60;1693080;83;21577;-70
2021/08/28 01:31:27;;;;;;;8.58;4.83;;;;;;;18.06;68.44;100195.43;1689676;83;21110;-67
2021/08/28 01:33:54;;;;;;;8.43;5.28;;;;;;;18.05;68.37;100196.42;1699089;83;21047;-68
2021/08/28 01:36:21;;;;;;;8.78;5.20;;;;;;;18.02;68.53;100200.77;1691619;83;21121;-67
2021/08/28 01:38:57;;;;;;;8.98;5.85;;;;;;;17.96;68.74;100210.29;1688190;83;21168;-66
2021/08/28 01:41:26;;;;;;;8.53;5.17;;;;;;;17.91;68.68;100217.97;1668750;83;22025;-65
2021/08/28 01:43:56;;;;;;;11.97;6.35;;;;;;;17.88;68.78;100214.84;1701356;82;22270;-69
2021/08/28 01:46:24;;;;;;;10.00;5.85;;;;;;;17.85;68.79;100203.99;1702098;83;21054;-66
2021/08/28 01:48:53;;;;;;;10.78;7.17;;;;;;;17.87;68.84;100206.03;1700715;83;21150;-69
2021/08/28 01:51:22;;;;;;;9.05;6.05;;;;;;;17.95;68.81;100214.45;1701314;83;21139;-66
2021/08/28 01:53:49;;;;;;;9.33;5.78;;;;;;;18.00;68.96;100212.95;1700884;83;21021;-67
2021/08/28 01:56:15;;;;;;;8.20;5.60;;;;;;;18.09;69.02;100221.70;1667472;83;21170;-67
2021/08/28 01:58:43;;;;;;;8.83;6.15;;;;;;;18.15;69.00;100215.66;1690296;83;21128;-70
2021/08/28 02:01:14;;;;;;;8.90;6.20;;;;;;;18.18;69.07;100217.97;1702513;82;21032;-69
2021/08/28 02:03:42;;;;;;;8.75;6.53;;;;;;;18.20;68.87;100211.14;1686446;83;21075;-66
2021/08/28 02:06:36;;;;;;;12.40;6.37;;;;;;;18.20;68.71;100205.30;1700818;83;21110;-66
2021/08/28 02:09:45;;;;;;;8.20;5.90;;;;;;;18.19;68.73;100194.86;1700783;83;21110;-70
2021/08/28 02:12:19;;;;;;;8.18;4.62;;;;;;;18.23;68.63;100182.01;1700314;83;21102;-66
2021/08/28 02:15:12;;;;;;;8.43;4.53;;;;;;;18.27;68.54;100189.95;1692321;83;21070;-70
2021/08/28 02:17:59;;;;;;;10.05;5.25;;;;;;;18.30;68.64;100188.27;1689326;83;21160;-65
2021/08/28 02:20:29;;;;;;;7.35;4.95;;;;;;;18.33;68.75;100186.08;1653591;84;21038;-66
2021/08/28 02:23:08;;;;;;;6.97;5.05;;;;;;;18.34;68.82;100178.91;1701092;83;21023;-66
2021/08/28 02:25:55;;;;;;;7.67;5.42;;;;;;;18.34;68.84;100171.77;1682052;83;21113;-67
2021/08/28 02:28:27;;;;;;;6.58;4.12;;;;;;;18.32;68.84;100173.75;1707035;83;21565;-66
2021/08/28 02:30:54;;;;;;;7.30;4.65;;;;;;;18.38;68.75;100181.04;1680421;83;21150;-66
2021/08/28 02:33:22;;;;;;;6.75;4.70;;;;;;;18.43;68.68;100167.70;1700999;83;21070;-67
2021/08/28 02:35:50;;;;;;;8.20;4.80;;;;;;;18.46;68.58;100168.66;1677180;83;21379;-66
2021/08/28 02:38:18;;;;;;;8.28;4.83;;;;;;;18.45;68.63;100163.02;1702660;83;21498;-66
2021/08/28 02:40:46;;;;;;;7.65;5.17;;;;;;;18.46;68.85;100146.86;1702738;83;21050;-66
2021/08/28 02:43:15;;;;;;;7.35;4.60;;;;;;;18.46;69.01;100154.00;1700812;82;23167;-66
2021/08/28 02:45:43;;;;;;;6.45;4.55;;;;;;;18.44;69.25;100158.20;1683316;83;22257;-66
2021/08/28 02:48:10;;;;;;;8.48;4.90;;;;;;;18.48;69.53;100173.33;1712395;83;21015;-66
2021/08/28 02:50:37;;;;;;;6.37;4.25;;;;;;;18.55;69.60;100179.06;1678384;83;21087;-67
2021/08/28 02:53:04;;;;;;;6.55;3.87;;;;;;;18.60;69.58;100175.87;1707351;83;21129;-68
2021/08/28 02:55:31;;;;;;;6.30;4.28;;;;;;;18.66;69.46;100156.98;1710732;83;21516;-66
2021/08/28 02:57:57;;;;;;;8.28;4.78;;;;;;;18.72;69.42;100157.09;1681333;83;21496;-67
2021/08/28 03:00:24;;;;;;;7.67;4.33;;;;;;;18.75;69.34;100159.91;1708816;83;21106;-68
2021/08/28 03:02:51;;;;;;;10.70;5.55;;;;;;;18.81;69.33;100166.34;1684174;83;21592;-69
2021/08/28 03:05:17;;;;;;;7.80;4.85;;;;;;;18.81;69.11;100160.53;1713848;83;21022;-66
2021/08/28 03:07:46;;;;;;;7.22;4.65;;;;;;;18.81;69.16;100166.34;1708953;82;21145;-66
2021/08/28 03:10:13;;;;;;;6.75;4.05;;;;;;;18.84;69.13;100172.68;1707493;83;22275;-68
2021/08/28 03:12:39;;;;;;;7.87;4.37;;;;;;;18.90;68.88;100170.62;1715181;83;21682;-66
2021/08/28 03:15:07;;;;;;;8.93;4.40;;;;;;;18.93;68.71;100168.94;1688185;83;21083;-66
2021/08/28 03:17:37;;;;;;;7.45;4.60;;;;;;;18.96;68.70;100171.72;1710247;83;21141;-67
2021/08/28 03:20:05;;;;;;;10.75;4.47;;;;;;;18.99;68.70;100165.52;1713907;82;21545;-66
2021/08/28 03:22:31;;;;;;;8.05;4.78;;;;;;;19.00;68.75;100160.52;1685684;83;21035;-66
2021/08/28 03:24:58;;;;;;;6.62;4.08;;;;;;;19.03;68.64;100161.48;1685057;83;21474;-66
2021/08/28 03:27:26;;;;;;;10.45;4.53;;;;;;;19.04;68.57;100155.13;1705195;83;21066;-68
2021/08/28 03:29:53;;;;;;;7.53;4.33;;;;;;;19.04;68.55;100151.12;1686269;83;21101;-66
2021/08/28 03:32:20;;;;;;;6.65;3.98;;;;;;;19.08;68.42;100151.58;1706070;83;22335;-66
2021/08/28 03:34:46;;;;;;;5.78;3.12;;;;;;;19.14;68.26;100154.03;1714490;83;21054;-68
2021/08/28 03:37:13;;;;;;;5.87;3.45;;;;;;;19.19;68.30;100160.46;1687618;83;21101;-67
2021/08/28 03:39:46;;;;;;;6.95;4.53;;;;;;;19.23;68.19;100153.77;1687648;83;21564;-67
2021/08/28 03:42:14;;;;;;;7.33;3.70;;;;;;;19.28;68.19;100155.37;1704102;83;21053;-68
2021/08/28 03:44:41;;;;;;;7.45;4.05;;;;;;;19.33;68.16;100156.13;1709045;81;21597;-65
2021/08/28 03:47:15;;;;;;;5.78;3.47;;;;;;;19.33;67.99;100153.97;1677438;83;21543;-66
2021/08/28 03:49:42;;;;;;;8.15;4.45;;;;;;;19.31;67.89;100160.82;1695486;83;21671;-67
2021/08/28 03:52:09;;;;;;;5.72;3.58;;;;;;;19.27;67.90;100165.70;1695751;83;21106;-66
2021/08/28 03:54:36;;;;;;;6.80;3.72;;;;;;;19.27;67.79;100179.04;1697916;83;21134;-69
2021/08/28 03:57:03;;;;;;;7.00;3.67;;;;;;;19.30;67.65;100173.86;1680714;83;22887;-71
2021/08/28 04:00:38;;;;;;;6.65;3.95;;;;;;;19.40;67.70;100174.39;1861008;75;22514;-68
2021/08/28 04:03:05;;;;;;;6.20;3.85;;;;;;;19.38;67.74;100177.73;1842102;75;21458;-69
2021/08/28 04:05:31;;;;;;;7.30;4.78;;;;;;;19.36;67.92;100169.09;1840953;75;21379;-66
2021/08/28 04:07:58;;;;;;;9.23;4.12;;;;;;;19.36;68.04;100165.09;1844299;77;20898;-67
2021/08/28 04:10:25;;;;;;;7.45;4.05;;;;;;;19.34;68.01;100175.64;1837452;77;21056;-67
2021/08/28 04:12:52;;;;;;;6.60;3.95;;;;;;;19.34;67.90;100179.13;1807568;77;21037;-65
2021/08/28 04:15:20;;;;;;;6.03;3.37;;;;;;;19.39;68.08;100182.06;1835950;77;20983;-65
2021/08/28 04:18:06;;;;;;;5.65;3.65;;;;;;;19.45;68.01;100183.16;1760348;80;21095;-66
2021/08/28 04:20:33;;;;;;;6.70;3.55;;;;;;;19.48;67.85;100184.97;1781850;78;22324;-66
2021/08/28 04:23:01;;;;;;;5.90;3.87;;;;;;;19.50;67.90;100180.75;1802834;77;21600;-68
2021/08/28 04:25:47;;;;;;;7.62;4.08;;;;;;;19.51;67.98;100172.27;1724572;81;21073;-66
2021/08/28 04:28:25;;;;;;;6.67;3.75;;;;;;;19.48;67.85;100170.30;1721106;81;21131;-66
2021/08/28 04:30:52;;;;;;;6.92;4.12;;;;;;;19.47;67.72;100167.81;1777055;75;21846;-67
2021/08/28 04:33:19;;;;;;;9.00;4.67;;;;;;;19.45;67.74;100171.15;1815917;77;21046;-68
2021/08/28 04:35:46;;;;;;;11.33;4.97;;;;;;;19.46;67.73;100181.64;1833856;77;21387;-67
2021/08/28 04:38:13;;;;;;;6.72;3.98;;;;;;;19.52;67.37;100181.91;1840463;77;21236;-67
2021/08/28 04:40:40;;;;;;;6.35;3.75;;;;;;;19.53;67.35;100184.91;1801869;77;21034;-67
2021/08/28 04:43:07;;;;;;;6.33;3.83;;;;;;;19.56;67.54;100177.87;1821740;77;21080;-68
2021/08/28 04:45:36;;;;;;;8.48;4.75;;;;;;;19.56;67.76;100176.02;1777655;78;21050;-67
2021/08/28 04:48:05;;;;;;;6.35;3.90;;;;;;;19.58;67.88;100177.16;1776411;78;21039;-67
2021/08/28 04:50:34;;;;;;;7.20;4.22;;;;;;;19.59;67.97;100178.31;1780546;78;21033;-65
2021/08/28 04:53:00;;;;;;;6.53;3.70;;;;;;;19.60;67.62;100181.31;1778780;78;21060;-65
2021/08/28 04:55:28;;;;;;;7.00;3.58;;;;;;;19.66;67.40;100177.06;1737065;80;22020;-65
2021/08/28 04:57:55;;;;;;;7.50;4.15;;;;;;;19.73;67.55;100181.97;1717155;80;21592;-65
2021/08/28 05:00:23;;;;;;;6.62;4.28;;;;;;;19.75;67.66;100178.63;1778935;78;21021;-65
2021/08/28 05:02:55;;;;;;;6.17;3.67;;;;;;;19.76;67.63;100184.30;1751529;78;21010;-66
2021/08/28 05:05:22;;;;;;;6.08;3.83;;;;;;;19.74;67.54;100183.63;1779078;78;21020;-64
2021/08/28 05:07:48;;;;;;;8.30;3.42;;;;;;;19.75;67.31;100194.64;1744324;80;22364;-68
2021/08/28 05:10:15;;;;;;;6.08;3.20;;;;;;;19.77;67.09;100201.98;1751162;80;21103;-67
2021/08/28 05:12:42;;;;;;;6.15;3.25;;;;;;;19.81;66.33;100194.42;1774641;78;20995;-66
2021/08/28 05:15:17;;;;;;;6.00;3.37;;;;;;;19.86;66.05;100196.02;1783245;78;21050;-67
2021/08/28 05:17:45;;;;;;;6.22;3.50;;;;;;;19.90;65.50;100209.30;1782116;78;21002;-65
2021/08/28 05:20:12;;;;;;;6.50;3.77;;;;;;;19.86;64.70;100214.70;1758050;79;21050;-67
2021/08/28 05:22:45;;;;;;;7.95;3.58;;;;;;;19.77;64.78;100215.33;1721163;78;21073;-65
2021/08/28 05:25:13;;;;;;;6.00;3.35;;;;;;;19.65;64.89;100216.28;1778465;78;21033;-65
2021/08/28 05:27:42;;;;;;;7.95;3.72;;;;;;;19.57;65.08;100223.05;1759879;78;21014;-68
2021/08/28 05:30:10;;;;;;;6.78;3.67;;;;;;;19.52;65.23;100217.45;1785869;78;21459;-65
2021/08/28 05:32:37;;;;;;;6.30;3.37;;;;;;;19.53;65.51;100216.41;1758767;80;21203;-66
2021/08/28 05:35:05;;;;;;;7.03;3.27;;;;;;;19.56;65.70;100213.89;1758050;79;21022;-66
2021/08/28 05:37:50;;;;;;;5.33;3.05;;;;;;;19.62;65.89;100205.16;1776447;80;21046;-66
2021/08/28 05:40:19;;;;;;;5.15;3.20;;;;;;;19.70;66.15;100209.02;1754458;79;21105;-68
2021/08/28 05:42:46;;;;;;;5.80;3.10;;;;;;;19.73;66.35;100205.98;1783249;78;21064;-66
2021/08/28 05:45:13;;;;;;;6.40;3.70;;;;;;;19.74;66.19;100211.66;1783075;78;21128;-69
2021/08/28 05:47:40;;;;;;;7.67;4.03;;;;;;;19.76;65.99;100214.99;1745184;80;21080;-66
2021/08/28 05:50:09;;;;;;;6.28;3.65;;;;;;;19.74;65.86;100210.33;1756654;79;21011;-66
2021/08/28 05:52:35;;;;;;;6.85;4.05;;;;;;;19.73;65.52;100212.66;1726970;80;21054;-69
2021/08/28 05:55:02;;;;;;;6.33;3.35;;;;;;;19.71;65.04;100201.87;1782812;78;21022;-72
2021/08/28 05:57:29;;;;;;;5.92;3.17;;;;;;;19.70;64.87;100202.35;1757760;80;22030;-66
2021/08/28 05:59:55;;;;;;;5.25;3.30;;;;;;;19.77;64.54;100205.98;1770560;78;21046;-68
2021/08/28 06:02:23;;;;;;;6.00;3.40;;;;;;;19.84;64.33;100204.21;1755408;80;21025;-68
2021/08/28 06:04:49;;;;;;;6.60;3.80;;;;;;;19.89;64.04;100204.14;1787627;78;21106;-70
2021/08/28 06:07:20;;;;;;;6.03;3.55;;;;;;;19.90;63.55;100209.30;1773103;78;21647;-70
2021/08/28 06:09:49;;;;;;;5.53;3.33;;;;;;;19.91;63.44;100212.30;1753417;80;21838;-66
2021/08/28 06:12:23;;;;;;;7.00;4.17;;;;;;;19.92;62.85;100219.78;1787286;78;21575;-67
2021/08/28 06:15:08;;;;;;;6.40;3.12;;;;;;;19.93;62.90;100215.59;1673534;83;21529;-66
2021/08/28 06:17:51;;;;;;;6.60;3.60;;;;;;;19.95;63.02;100208.73;1729908;80;21046;-66
2021/08/28 06:20:19;;;;;;;7.08;3.50;;;;;;;19.94;63.29;100215.08;1722610;80;21040;-71
2021/08/28 06:22:45;;;;;;;7.25;3.25;;;;;;;19.98;62.81;100214.52;1768260;79;23348;-66
2021/08/28 06:25:12;;;;;;;6.35;3.65;;;;;;;20.02;62.60;100217.64;1737552;81;21089;-69
2021/08/28 06:27:39;;;;;;;6.50;3.70;;;;;;;20.08;62.49;100214.22;1753383;79;21039;-71
2021/08/28 06:30:09;;;;;;;5.83;3.47;;;;;;;20.10;62.08;100216.70;1757095;79;21103;-68
2021/08/28 06:32:35;;;;;;;7.10;3.95;;;;;;;20.11;62.67;100217.86;1757585;79;21524;-71
2021/08/28 06:35:02;;;;;;;10.18;4.60;;;;;;;20.12;62.24;100218.16;1758965;79;21502;-66
2021/08/28 06:37:30;;;;;;;7.05;3.67;;;;;;;20.12;61.00;100228.84;1757485;80;21106;-69
2021/08/28 06:40:16;;;;;;;6.10;3.72;;;;;;;20.10;61.32;100226.05;1726990;81;21097;-69
2021/08/28 06:42:45;;;;;;;6.05;3.95;;;;;;;20.07;61.08;100234.44;1711770;82;21093;-68
2021/08/28 06:45:30;;;;;;;6.25;4.08;;;;;;;20.04;60.96;100231.66;1754975;78;21060;-73
2021/08/28 06:48:14;;;;;;;6.67;3.87;;;;;;;19.99;60.94;100228.73;1758059;79;21777;-67
2021/08/28 06:50:57;;;;;;;10.28;5.08;;;;;;;19.93;61.05;100232.95;1779331;78;21085;-67
2021/08/28 06:53:42;;;;;;;8.53;4.42;;;;;;;19.94;61.08;100237.78;1776606;79;21097;-67
2021/08/28 06:56:10;;;;;;;7.78;4.83;;;;;;;19.99;60.87;100231.39;1728713;78;21038;-68
2021/08/28 06:58:43;;;;;;;7.25;4.65;;;;;;;19.99;61.09;100239.41;1729553;79;21029;-66
2021/08/28 07:01:32;;;;;;;6.62;4.20;;;;;;;19.92;61.13;100243.34;1776775;78;21081;-67
2021/08/28 07:04:09;;;;;;;8.30;4.85;;;;;;;19.86;61.62;100243.55;1712262;80;21067;-68
2021/08/28 07:06:56;;;;;;;8.98;5.15;;;;;;;19.86;61.70;100249.41;1647699;85;21103;-68
2021/08/28 07:09:22;;;;;;;7.37;4.42;;;;;;;19.86;62.48;100259.58;1687855;83;22238;-68
2021/08/28 07:11:49;;;;;;;7.15;4.78;;;;;;;19.90;62.58;100261.88;1712201;80;21053;-67
2021/08/28 07:14:17;;;;;;;7.05;4.40;;;;;;;19.94;62.49;100265.81;1738385;80;21120;-68
2021/08/28 07:16:44;;;;;;;6.87;4.50;;;;;;;19.99;62.64;100261.59;1737128;80;21101;-65
2021/08/28 07:19:10;;;;;;;8.85;4.17;;;;;;;20.08;62.01;100268.16;1758009;79;21045;-66
2021/08/28 07:21:37;;;;;;;9.73;4.95;;;;;;;20.14;61.85;100263.38;1776179;78;21196;-68
2021/08/28 07:24:04;;;;;;;7.17;4.87;;;;;;;20.18;61.35;100264.67;1781627;79;21038;-66
2021/08/28 07:26:32;;;;;;;7.87;5.08;;;;;;;20.19;61.51;100263.16;1759348;80;21070;-64
2021/08/28 07:29:07;;;;;;;6.47;4.67;;;;;;;20.22;61.06;100266.78;1706652;80;21722;-65
2021/08/28 07:31:39;;;;;;;7.50;4.58;;;;;;;20.22;61.29;100269.46;1787051;78;21081;-65
2021/08/28 07:34:06;;;;;;;7.83;4.45;;;;;;;20.23;61.53;100271.09;1761321;79;21480;-65
2021/08/28 07:36:32;;;;;;;6.67;4.22;;;;;;;20.26;61.76;100272.58;1760034;79;21082;-65
2021/08/28 07:38:59;;;;;;;6.33;3.55;;;;;;;20.31;61.39;100277.33;1733877;79;21218;-67
2021/08/28 07:41:26;;;;;;;5.97;3.85;;;;;;;20.39;60.58;100289.23;1787832;78;20979;-69
2021/08/28 07:43:55;;;;;;;7.70;4.67;;;;;;;20.41;60.49;100282.70;1766254;79;21109;-67
2021/08/28 07:46:21;;;;;;;6.42;3.98;;;;;;;20.41;60.29;100283.22;1740036;79;21048;-67
2021/08/28 07:48:49;;;;;;;6.70;4.15;;;;;;;20.40;60.26;100290.39;1764019;79;21111;-69
2021/08/28 07:51:17;;;;;;;6.10;3.47;;;;;;;20.45;60.52;100286.34;1763530;79;22905;-66
2021/08/28 07:53:44;;;;;;;9.18;4.65;;;;;;;20.54;60.51;100291.37;1765901;79;21022;-67
2021/08/28 07:56:12;;;;;;;8.13;3.50;;;;;;;20.65;59.68;100291.91;1765726;79;21070;-66
2021/08/28 07:58:40;;;;;;;6.37;3.15;;;;;;;20.72;59.28;100296.28;1768884;79;21081;-66
2021/08/28 08:01:06;;;;;;;6.95;3.65;;;;;;;20.77;57.87;100289.03;1766149;79;21084;-70
2021/08/28 08:03:35;;;;;;;6.72;3.40;;;;;;;20.83;58.30;100297.64;1765910;79;22334;-69
2021/08/28 08:06:20;;;;;;;6.47;2.85;;;;;;;20.93;57.73;100299.47;1764876;79;22249;-66
2021/08/28 08:09:05;;;;;;;4.10;2.13;;;;;;;21.01;56.20;100293.66;1736071;79;21089;-69
2021/08/28 08:11:46;;;;;;;7.95;3.02;;;;;;;21.06;55.79;100299.25;1759105;79;21526;-67
2021/08/28 08:14:27;;;;;;;5.17;2.50;;;;;;;21.06;55.94;100303.27;1765589;79;21387;-67
2021/08/28 08:17:05;;;;;;;9.03;2.98;;;;;;;21.07;56.09;100299.06;1647401;84;21943;-67
2021/08/28 08:19:50;;;;;;;5.95;2.92;;;;;;;21.08;56.16;100305.23;1741803;80;21062;-66
2021/08/28 08:22:35;;;;;;;5.78;2.95;;;;;;;21.02;56.16;100306.02;1782054;78;21070;-65
2021/08/28 08:25:15;;;;;;;7.60;3.33;;;;;;;20.86;56.02;100307.92;1747305;80;21093;-65
2021/08/28 08:27:43;;;;;;;6.85;2.80;;;;;;;20.71;56.16;100300.00;1740039;80;21512;-64
2021/08/28 08:30:12;;;;;;;5.35;2.75;;;;;;;20.64;56.46;100307.10;1744698;80;21230;-66
2021/08/28 08:32:50;;;;;;;5.37;2.95;;;;;;;20.65;56.79;100303.94;1783189;78;21070;-65
2021/08/28 08:35:16;;;;;;;5.87;2.87;;;;;;;20.70;56.59;100301.52;1781882;78;20976;-71
2021/08/28 08:37:43;;;;;;;5.35;2.85;;;;;;;20.75;56.03;100309.80;1779456;78;21089;-67
2021/08/28 08:40:11;;;;;;;6.58;2.95;;;;;;;20.78;56.16;100307.56;1742966;80;21035;-65
2021/08/28 08:42:40;;;;;;;6.33;2.87;;;;;;;20.80;55.84;100332.77;1769564;79;22106;-66
2021/08/28 08:45:08;;;;;;;8.00;3.05;;;;;;;20.82;55.56;100329.39;1773095;79;21023;-66
2021/08/28 08:47:36;;;;;;;5.45;2.80;;;;;;;20.84;55.54;100309.97;1770873;79;21050;-67
2021/08/28 08:50:04;;;;;;;5.20;2.45;;;;;;;20.89;54.67;100316.91;1768176;79;21338;-64
2021/08/28 08:52:32;;;;;;;5.30;2.33;;;;;;;20.99;54.29;100321.93;1772311;79;22511;-67
2021/08/28 08:55:01;;;;;;;6.92;2.70;;;;;;;21.10;54.16;100321.94;1762421;79;21136;-66
2021/08/28 08:57:27;;;;;;;5.12;2.60;;;;;;;21.21;54.70;100325.92;1736876;79;21062;-66
2021/08/28 08:59:53;;;;;;;5.03;1.98;;;;;;;21.31;53.46;100325.06;1771208;79;21011;-66
2021/08/28 09:02:20;;;;;;;6.22;2.42;;;;;;;21.33;53.07;100327.88;1767928;79;20915;-66
2021/08/28 09:04:54;;;;;;;6.33;2.85;;;;;;;21.34;53.50;100329.52;1754704;79;21481;-65
2021/08/28 09:07:21;;;;;;;4.97;2.22;;;;;;;21.37;54.02;100335.00;1766848;79;21196;-67
2021/08/28 09:09:48;;;;;;;4.70;2.45;;;;;;;21.40;53.43;100341.80;1741274;79;21106;-65
2021/08/28 09:12:16;;;;;;;4.33;2.12;;;;;;;21.28;52.75;100340.17;1754150;79;21138;-67
2021/08/28 09:14:43;;;;;;;4.30;1.75;;;;;;;21.15;53.30;100339.05;1763663;79;21059;-65
2021/08/28 09:17:18;;;;;;;4.75;2.27;;;;;;;21.09;53.84;100339.00;1755233;79;21061;-69
2021/08/28 09:19:46;;;;;;;4.12;1.95;;;;;;;21.09;54.15;100341.67;1761305;79;21900;-65
2021/08/28 09:22:32;;;;;;;7.40;2.58;;;;;;;21.17;54.37;100348.22;1730510;79;21063;-68
2021/08/28 09:25:05;;;;;;;4.08;2.00;;;;;;;21.31;53.64;100359.34;1757682;79;21508;-69
2021/08/28 09:27:49;;;;;;;6.60;2.12;;;;;;;21.38;53.84;100350.02;1759219;79;22492;-65
2021/08/28 09:30:30;;;;;;;4.97;2.10;;;;;;;21.46;52.85;100365.94;1759864;79;21041;-68
2021/08/28 09:33:05;;;;;;;4.17;1.95;;;;;;;21.47;52.59;100356.93;1755476;79;21097;-66
2021/08/28 09:35:35;;;;;;;4.45;1.90;;;;;;;21.43;52.71;100361.48;1757468;79;21072;-70
2021/08/28 09:38:04;;;;;;;4.40;1.52;;;;;;;21.35;52.30;100361.14;1756743;79;21645;-67
2021/08/28 09:40:36;;;;;;;4.03;1.62;;;;;;;21.30;51.30;100360.86;1759636;79;22079;-67
2021/08/28 09:43:14;;;;;;;4.30;1.60;;;;;;;21.28;51.99;100358.41;1760830;79;21508;-67
2021/08/28 09:45:41;;;;;;;4.45;2.08;;;;;;;21.31;51.69;100359.34;1731448;80;21069;-66
2021/08/28 09:48:10;;;;;;;3.77;1.52;;;;;;;21.36;52.64;100355.27;1762532;79;21033;-67
2021/08/28 09:50:46;;;;;;;5.12;1.82;;;;;;;21.46;52.41;100359.77;1758985;79;21105;-67
2021/08/28 09:53:22;;;;;;;5.17;2.02;;;;;;;21.57;51.62;100352.58;1754767;79;22314;-69
2021/08/28 09:56:01;;;;;;;3.92;1.95;;;;;;;21.74;51.66;100362.95;1757763;79;21058;-72
2021/08/28 09:58:32;;;;;;;3.22;1.45;;;;;;;21.88;50.86;100363.36;1758328;79;21580;-71
2021/08/28 10:01:01;;;;;;;4.05;1.55;;;;;;;21.93;49.82;100372.15;1725627;79;21484;-73
2021/08/28 10:03:28;;;;;;;8.95;1.90;;;;;;;21.85;50.24;100373.13;1764644;79;21557;-70
2021/08/28 10:05:55;;;;;;;3.67;1.42;;;;;;;21.84;50.57;100376.84;1760218;80;21045;-68
2021/08/28 10:08:22;;;;;;;4.05;1.75;;;;;;;21.89;50.15;100374.41;1747616;80;21398;-65
2021/08/28 10:10:50;;;;;;;3.55;1.67;;;;;;;21.91;50.82;100369.66;1718555;81;21116;-66
2021/08/28 10:13:23;;;;;;;4.58;1.98;;;;;;;21.92;50.94;100372.64;1725855;81;21090;-68
2021/08/28 10:15:49;;;;;;;6.00;2.70;;;;;;;21.96;50.73;100377.94;1772336;80;21057;-68
2021/08/28 10:18:16;;;;;;;4.87;2.20;;;;;;;22.04;51.43;100376.92;1744051;80;21031;-70
2021/08/28 10:20:43;;;;;;;5.70;2.52;;;;;;;22.19;50.99;100376.80;1721762;80;21460;-67
2021/08/28 10:23:09;;;;;;;3.92;1.37;;;;;;;22.34;50.03;100388.26;1727797;81;21148;-68
2021/08/28 10:25:39;;;;;;;4.30;1.45;;;;;;;22.42;49.94;100388.05;1774382;79;21062;-66
2021/08/28 10:28:09;;;;;;;3.72;1.52;;;;;;;22.50;48.88;100386.25;1774446;79;21134;-67
2021/08/28 10:30:35;;;;;;;3.00;1.22;;;;;;;22.55;48.26;100391.83;1766147;79;21745;-65
2021/08/28 10:33:02;;;;;;;3.65;1.40;;;;;;;22.57;47.73;100389.24;1735657;80;21030;-67
2021/08/28 10:35:29;;;;;;;3.85;1.55;;;;;;;22.64;48.06;100385.24;1777026;79;21138;-64
2021/08/28 10:37:55;;;;;;;4.30;1.22;;;;;;;22.76;48.74;100387.66;1748396;80;21050;-65
2021/08/28 10:40:30;;;;;;;4.53;1.37;;;;;;;22.90;48.17;100380.46;1776438;80;21093;-66
2021/08/28 10:43:04;;;;;;;3.95;1.50;;;;;;;23.06;47.64;100387.31;1738163;81;21102;-63
2021/08/28 10:45:39;;;;;;;4.03;1.42;;;;;;;23.17;47.54;100392.59;1736969;80;21101;-64
2021/08/28 10:48:23;;;;;;;3.75;1.40;;;;;;;23.22;47.44;100393.30;1750749;81;21114;-64
2021/08/28 10:50:53;;;;;;;3.52;1.40;;;;;;;23.16;47.08;100394.96;1770966;79;21105;-65
2021/08/28 10:53:20;;;;;;;3.45;1.25;;;;;;;23.11;46.98;100397.44;1743760;80;21071;-67
2021/08/28 10:55:48;;;;;;;3.15;1.20;;;;;;;23.04;46.30;100397.40;1749623;80;21060;-65
2021/08/28 10:58:23;;;;;;;3.58;1.62;;;;;;;22.97;46.65;100399.25;1750274;80;21101;-64
2021/08/28 11:00:55;;;;;;;2.85;1.17;;;;;;;22.98;47.38;100403.08;1748886;80;21199;-64
2021/08/28 11:03:33;;;;;;;4.78;1.40;;;;;;;22.99;46.72;100394.50;1748218;79;21155;-65
2021/08/28 11:06:18;;;;;;;3.62;1.20;;;;;;;22.98;46.47;100400.89;1768846;79;21370;-66
2021/08/28 11:08:55;;;;;;;3.55;1.17;;;;;;;22.99;46.14;100390.48;1762739;79;21057;-64
2021/08/28 11:11:38;;;;;;;3.65;1.20;;;;;;;23.01;46.66;100404.51;1766803;79;21097;-65
2021/08/28 11:14:12;;;;;;;2.80;1.10;;;;;;;23.05;46.35;100392.35;1739057;79;21080;-65
2021/08/28 11:16:48;;;;;;;3.75;1.30;;;;;;;23.11;46.26;100398.78;1765247;79;21045;-70
2021/08/28 11:19:31;;;;;;;3.33;1.30;;;;;;;23.15;45.87;100388.78;1758932;80;21045;-71
2021/08/28 11:21:58;;;;;;;2.90;1.00;;;;;;;23.23;45.63;100381.55;1794195;78;21547;-65
2021/08/28 11:24:26;;;;;;;3.35;1.35;;;;;;;23.30;44.67;100389.92;1768078;78;21100;-66
2021/08/28 11:26:59;;;;;;;3.60;1.42;;;;;;;23.32;45.19;100395.91;1788636;78;21129;-65
2021/08/28 11:29:30;;;;;;;3.60;1.50;;;;;;;23.35;45.63;100394.65;1726139;81;21532;-66
2021/08/28 11:32:22;;;;;;;3.58;1.45;;;;;;;23.40;46.03;100397.54;1795546;78;21085;-65
2021/08/28 11:34:55;;;;;;;3.22;1.35;;;;;;;23.41;45.18;100395.17;1760529;79;21113;-65
2021/08/28 11:37:34;;;;;;;3.17;1.55;;;;;;;23.39;44.84;100393.22;1758681;79;21081;-67
2021/08/28 11:40:22;;;;;;;4.78;1.67;;;;;;;23.40;44.81;100389.48;1733278;81;21140;-68
2021/08/28 11:42:49;;;;;;;3.47;1.25;;;;;;;23.40;44.92;100394.03;1759960;79;21038;-67